sensor_id;sensor_type;location;lat;lon;timestamp;temperature;humidity
11784;DHT22;5949;40.386;18.150;2022-10-16T00:01:41;18.40;99.90
11784;DHT22;5949;40.386;18.150;2022-10-16T00:04:09;18.40;99.90
11784;DHT22;5949;40.386;18.150;2022-10-16T00:06:38;18.50;99.90
11784;DHT22;5949;40.386;18.150;2022-10-16T00:09:06;18.50;99.90
11784;DHT22;5949;40.386;18.150;2022-10-16T00:11:35;18.40;99.90
11784;DHT22;5949;40.386;18.150;2022-10-16T00:14:06;18.40;99.90
11784;DHT22;5949;40.386;18.150;2022-10-16T00:16:34;18.40;99.90
11784;DHT22;5949;40.386;18.150;2022-10-16T00:19:02;18.40;99.90
11784;DHT22;5949;40.386;18.150;2022-10-16T00:21:33;18.40;99.90
11784;DHT22;5949;40.386;18.150;2022-10-16T00:24:05;18.40;99.90
11784;DHT22;5949;40.386;18.150;2022-10-16T00:26:35;18.40;99.90
11784;DHT22;5949;40.386;18.150;2022-10-16T00:29:03;18.40;99.90
11784;DHT22;5949;40.386;18.150;2022-10-16T00:31:31;18.40;99.90
11784;DHT22;5949;40.386;18.150;2022-10-16T00:33:58;18.40;99.90
11784;DHT22;5949;40.386;18.150;2022-10-16T00:36:26;18.40;99.90
11784;DHT22;5949;40.386;18.150;2022-10-16T00:38:55;18.40;99.90
11784;DHT22;5949;40.386;18.150;2022-10-16T00:41:26;18.50;99.90
11784;DHT22;5949;40.386;18.150;2022-10-16T00:43:56;18.50;99.90
11784;DHT22;5949;40.386;18.150;2022-10-16T00:46:25;18.40;99.90
11784;DHT22;5949;40.386;18.150;2022-10-16T00:48:59;18.40;99.90
11784;DHT22;5949;40.386;18.150;2022-10-16T00:51:32;18.40;99.90
11784;DHT22;5949;40.386;18.150;2022-10-16T00:54:00;18.40;99.90
11784;DHT22;5949;40.386;18.150;2022-10-16T00:56:31;18.30;99.90
11784;DHT22;5949;40.386;18.150;2022-10-16T00:59:00;18.40;99.90
11784;DHT22;5949;40.386;18.150;2022-10-16T01:01:29;18.50;99.90
11784;DHT22;5949;40.386;18.150;2022-10-16T01:03:56;18.50;99.90
11784;DHT22;5949;40.386;18.150;2022-10-16T01:06:28;18.50;99.90
11784;DHT22;5949;40.386;18.150;2022-10-16T01:09:12;18.50;99.90
11784;DHT22;5949;40.386;18.150;2022-10-16T01:11:47;18.50;99.90
11784;DHT22;5949;40.386;18.150;2022-10-16T01:14:22;18.50;99.90
11784;DHT22;5949;40.386;18.150;2022-10-16T01:16:57;18.50;99.90
11784;DHT22;5949;40.386;18.150;2022-10-16T01:19:40;18.50;99.90
11784;DHT22;5949;40.386;18.150;2022-10-16T01:22:11;18.60;99.90
11784;DHT22;5949;40.386;18.150;2022-10-16T01:24:41;18.50;99.90
11784;DHT22;5949;40.386;18.150;2022-10-16T01:27:14;18.60;99.90
11784;DHT22;5949;40.386;18.150;2022-10-16T01:29:49;18.60;99.90
11784;DHT22;5949;40.386;18.150;2022-10-16T01:32:26;18.60;99.90
11784;DHT22;5949;40.386;18.150;2022-10-16T01:35:00;18.60;99.90
11784;DHT22;5949;40.386;18.150;2022-10-16T01:37:35;18.70;99.90
11784;DHT22;5949;40.386;18.150;2022-10-16T01:40:09;18.70;99.90
11784;DHT22;5949;40.386;18.150;2022-10-16T01:42:41;18.70;99.90
11784;DHT22;5949;40.386;18.150;2022-10-16T01:45:12;18.80;99.90
11784;DHT22;5949;40.386;18.150;2022-10-16T01:47:41;18.80;99.90
11784;DHT22;5949;40.386;18.150;2022-10-16T01:50:10;18.90;99.90
11784;DHT22;5949;40.386;18.150;2022-10-16T01:52:41;19.00;99.90
11784;DHT22;5949;40.386;18.150;2022-10-16T01:55:13;19.10;99.90
11784;DHT22;5949;40.386;18.150;2022-10-16T01:57:46;19.30;99.90
11784;DHT22;5949;40.386;18.150;2022-10-16T02:00:17;19.20;99.90
11784;DHT22;5949;40.386;18.150;2022-10-16T02:02:49;19.30;99.90
11784;DHT22;5949;40.386;18.150;2022-10-16T02:05:21;19.40;99.90
11784;DHT22;5949;40.386;18.150;2022-10-16T02:07:50;19.40;99.90
11784;DHT22;5949;40.386;18.150;2022-10-16T02:10:18;19.40;99.90
11784;DHT22;5949;40.386;18.150;2022-10-16T02:12:50;19.40;99.90
11784;DHT22;5949;40.386;18.150;2022-10-16T02:15:21;19.50;99.90
11784;DHT22;5949;40.386;18.150;2022-10-16T02:17:49;19.60;99.90
11784;DHT22;5949;40.386;18.150;2022-10-16T02:20:16;19.80;99.90
11784;DHT22;5949;40.386;18.150;2022-10-16T02:22:48;19.70;99.90
11784;DHT22;5949;40.386;18.150;2022-10-16T02:25:22;19.60;99.90
11784;DHT22;5949;40.386;18.150;2022-10-16T02:27:59;19.60;99.90
11784;DHT22;5949;40.386;18.150;2022-10-16T02:30:33;19.50;99.90
11784;DHT22;5949;40.386;18.150;2022-10-16T02:33:11;19.30;99.90
11784;DHT22;5949;40.386;18.150;2022-10-16T02:35:41;19.30;99.90
11784;DHT22;5949;40.386;18.150;2022-10-16T02:38:09;19.20;99.90
11784;DHT22;5949;40.386;18.150;2022-10-16T02:40:38;19.20;99.90
11784;DHT22;5949;40.386;18.150;2022-10-16T02:43:07;19.20;99.90
11784;DHT22;5949;40.386;18.150;2022-10-16T02:45:34;19.20;99.90
11784;DHT22;5949;40.386;18.150;2022-10-16T02:48:02;19.20;99.90
11784;DHT22;5949;40.386;18.150;2022-10-16T02:50:30;19.20;99.90
11784;DHT22;5949;40.386;18.150;2022-10-16T02:52:57;19.20;99.90
11784;DHT22;5949;40.386;18.150;2022-10-16T02:55:25;19.10;99.90
11784;DHT22;5949;40.386;18.150;2022-10-16T02:57:53;19.20;99.90
11784;DHT22;5949;40.386;18.150;2022-10-16T03:00:22;19.30;99.90
11784;DHT22;5949;40.386;18.150;2022-10-16T03:02:50;19.20;99.90
11784;DHT22;5949;40.386;18.150;2022-10-16T03:05:17;19.40;99.90
11784;DHT22;5949;40.386;18.150;2022-10-16T03:07:45;19.30;99.90
11784;DHT22;5949;40.386;18.150;2022-10-16T03:10:12;19.30;99.90
11784;DHT22;5949;40.386;18.150;2022-10-16T03:12:40;19.20;99.90
11784;DHT22;5949;40.386;18.150;2022-10-16T03:15:08;19.20;99.90
11784;DHT22;5949;40.386;18.150;2022-10-16T03:17:37;19.20;99.90
11784;DHT22;5949;40.386;18.150;2022-10-16T03:20:06;19.20;99.90
11784;DHT22;5949;40.386;18.150;2022-10-16T03:22:38;19.20;99.90
11784;DHT22;5949;40.386;18.150;2022-10-16T03:25:06;19.10;99.90
11784;DHT22;5949;40.386;18.150;2022-10-16T03:27:33;19.10;99.90
11784;DHT22;5949;40.386;18.150;2022-10-16T03:30:01;19.00;99.90
11784;DHT22;5949;40.386;18.150;2022-10-16T03:32:28;18.80;99.90
11784;DHT22;5949;40.386;18.150;2022-10-16T03:34:57;18.40;99.90
11784;DHT22;5949;40.386;18.150;2022-10-16T03:37:25;18.40;99.90
11784;DHT22;5949;40.386;18.150;2022-10-16T03:39:52;18.30;99.90
11784;DHT22;5949;40.386;18.150;2022-10-16T03:42:20;18.40;99.90
11784;DHT22;5949;40.386;18.150;2022-10-16T03:44:48;18.40;99.90
11784;DHT22;5949;40.386;18.150;2022-10-16T03:47:15;18.30;99.90
11784;DHT22;5949;40.386;18.150;2022-10-16T03:49:46;18.30;99.90
11784;DHT22;5949;40.386;18.150;2022-10-16T03:52:15;18.20;99.90
11784;DHT22;5949;40.386;18.150;2022-10-16T03:54:42;18.20;99.90
11784;DHT22;5949;40.386;18.150;2022-10-16T03:57:10;18.10;99.90
11784;DHT22;5949;40.386;18.150;2022-10-16T03:59:37;18.20;99.90
11784;DHT22;5949;40.386;18.150;2022-10-16T04:02:05;18.20;99.90
11784;DHT22;5949;40.386;18.150;2022-10-16T04:04:32;18.30;99.90
11784;DHT22;5949;40.386;18.150;2022-10-16T04:06:59;18.50;99.90
11784;DHT22;5949;40.386;18.150;2022-10-16T04:09:28;18.60;99.90
11784;DHT22;5949;40.386;18.150;2022-10-16T04:11:56;18.60;99.90
11784;DHT22;5949;40.386;18.150;2022-10-16T04:14:23;18.70;99.90
11784;DHT22;5949;40.386;18.150;2022-10-16T04:16:51;18.90;99.90
11784;DHT22;5949;40.386;18.150;2022-10-16T04:19:18;18.90;99.90
11784;DHT22;5949;40.386;18.150;2022-10-16T04:21:46;19.00;99.90
11784;DHT22;5949;40.386;18.150;2022-10-16T04:24:13;19.10;99.90
11784;DHT22;5949;40.386;18.150;2022-10-16T04:26:42;19.20;99.90
11784;DHT22;5949;40.386;18.150;2022-10-16T04:29:09;19.20;99.90
11784;DHT22;5949;40.386;18.150;2022-10-16T04:31:36;19.20;99.90
11784;DHT22;5949;40.386;18.150;2022-10-16T04:34:04;19.20;99.90
11784;DHT22;5949;40.386;18.150;2022-10-16T04:36:31;19.30;99.90
11784;DHT22;5949;40.386;18.150;2022-10-16T04:38:59;19.40;99.90
11784;DHT22;5949;40.386;18.150;2022-10-16T04:41:26;19.40;99.90
11784;DHT22;5949;40.386;18.150;2022-10-16T04:43:55;19.40;99.90
11784;DHT22;5949;40.386;18.150;2022-10-16T04:46:22;19.50;99.90
11784;DHT22;5949;40.386;18.150;2022-10-16T04:48:50;19.50;99.90
11784;DHT22;5949;40.386;18.150;2022-10-16T04:51:17;19.60;99.90
11784;DHT22;5949;40.386;18.150;2022-10-16T04:53:45;19.70;99.90
11784;DHT22;5949;40.386;18.150;2022-10-16T04:56:12;19.80;99.90
11784;DHT22;5949;40.386;18.150;2022-10-16T04:58:40;19.80;99.90
11784;DHT22;5949;40.386;18.150;2022-10-16T05:01:09;19.80;99.90
11784;DHT22;5949;40.386;18.150;2022-10-16T05:03:37;19.90;99.90
11784;DHT22;5949;40.386;18.150;2022-10-16T05:06:05;19.90;99.90
11784;DHT22;5949;40.386;18.150;2022-10-16T05:08:33;20.00;99.90
11784;DHT22;5949;40.386;18.150;2022-10-16T05:11:00;20.10;99.90
11784;DHT22;5949;40.386;18.150;2022-10-16T05:13:27;20.20;99.90
11784;DHT22;5949;40.386;18.150;2022-10-16T05:15:55;20.20;99.90
11784;DHT22;5949;40.386;18.150;2022-10-16T05:18:24;20.20;99.90
11784;DHT22;5949;40.386;18.150;2022-10-16T05:20:51;20.40;99.90
11784;DHT22;5949;40.386;18.150;2022-10-16T05:23:19;20.50;99.90
11784;DHT22;5949;40.386;18.150;2022-10-16T05:25:53;20.60;99.90
11784;DHT22;5949;40.386;18.150;2022-10-16T05:28:21;20.70;99.90
11784;DHT22;5949;40.386;18.150;2022-10-16T05:30:48;20.80;99.90
11784;DHT22;5949;40.386;18.150;2022-10-16T05:33:16;20.90;99.90
11784;DHT22;5949;40.386;18.150;2022-10-16T05:35:45;21.10;99.90
11784;DHT22;5949;40.386;18.150;2022-10-16T05:38:12;21.20;99.90
11784;DHT22;5949;40.386;18.150;2022-10-16T05:40:40;21.30;99.90
11784;DHT22;5949;40.386;18.150;2022-10-16T05:43:07;21.30;99.90
11784;DHT22;5949;40.386;18.150;2022-10-16T05:45:35;21.50;99.90
11784;DHT22;5949;40.386;18.150;2022-10-16T05:48:02;21.50;99.90
11784;DHT22;5949;40.386;18.150;2022-10-16T05:50:29;21.70;99.90
11784;DHT22;5949;40.386;18.150;2022-10-16T05:52:58;21.80;99.90
11784;DHT22;5949;40.386;18.150;2022-10-16T05:55:26;21.70;99.90
11784;DHT22;5949;40.386;18.150;2022-10-16T05:57:54;21.80;99.90
11784;DHT22;5949;40.386;18.150;2022-10-16T06:00:21;21.80;99.90
11784;DHT22;5949;40.386;18.150;2022-10-16T06:02:49;21.70;99.90
11784;DHT22;5949;40.386;18.150;2022-10-16T06:05:16;21.50;99.90
11784;DHT22;5949;40.386;18.150;2022-10-16T06:07:44;21.50;99.90
11784;DHT22;5949;40.386;18.150;2022-10-16T06:10:13;21.50;99.90
11784;DHT22;5949;40.386;18.150;2022-10-16T06:12:40;21.40;99.90
11784;DHT22;5949;40.386;18.150;2022-10-16T06:15:08;21.40;99.90
11784;DHT22;5949;40.386;18.150;2022-10-16T06:17:35;21.30;99.90
11784;DHT22;5949;40.386;18.150;2022-10-16T06:20:03;21.20;99.90
11784;DHT22;5949;40.386;18.150;2022-10-16T06:22:31;21.30;99.90
11784;DHT22;5949;40.386;18.150;2022-10-16T06:24:58;21.40;99.90
11784;DHT22;5949;40.386;18.150;2022-10-16T06:27:27;21.50;99.90
11784;DHT22;5949;40.386;18.150;2022-10-16T06:29:54;21.20;99.90
11784;DHT22;5949;40.386;18.150;2022-10-16T06:32:22;21.30;99.90
11784;DHT22;5949;40.386;18.150;2022-10-16T06:34:49;21.30;99.90
11784;DHT22;5949;40.386;18.150;2022-10-16T06:37:17;21.50;99.90
11784;DHT22;5949;40.386;18.150;2022-10-16T06:39:44;21.40;99.90
11784;DHT22;5949;40.386;18.150;2022-10-16T06:42:11;21.30;99.90
11784;DHT22;5949;40.386;18.150;2022-10-16T06:44:40;21.30;99.90
11784;DHT22;5949;40.386;18.150;2022-10-16T06:47:08;21.40;99.90
11784;DHT22;5949;40.386;18.150;2022-10-16T06:49:35;21.80;99.90
11784;DHT22;5949;40.386;18.150;2022-10-16T06:52:03;21.50;99.90
11784;DHT22;5949;40.386;18.150;2022-10-16T06:54:30;21.90;99.90
11784;DHT22;5949;40.386;18.150;2022-10-16T06:56:58;21.80;99.90
11784;DHT22;5949;40.386;18.150;2022-10-16T06:59:26;22.10;99.90
11784;DHT22;5949;40.386;18.150;2022-10-16T07:01:55;22.30;99.90
11784;DHT22;5949;40.386;18.150;2022-10-16T07:04:23;22.30;99.90
11784;DHT22;5949;40.386;18.150;2022-10-16T07:06:50;22.40;99.90
11784;DHT22;5949;40.386;18.150;2022-10-16T07:09:18;22.20;99.90
11784;DHT22;5949;40.386;18.150;2022-10-16T07:11:45;22.40;99.90
11784;DHT22;5949;40.386;18.150;2022-10-16T07:14:15;22.30;99.90
11784;DHT22;5949;40.386;18.150;2022-10-16T07:16:43;22.60;99.90
11784;DHT22;5949;40.386;18.150;2022-10-16T07:19:12;22.50;99.90
11784;DHT22;5949;40.386;18.150;2022-10-16T07:21:41;22.20;99.90
11784;DHT22;5949;40.386;18.150;2022-10-16T07:24:12;22.30;99.90
11784;DHT22;5949;40.386;18.150;2022-10-16T07:26:40;22.20;99.90
11784;DHT22;5949;40.386;18.150;2022-10-16T07:29:14;22.20;99.90
11784;DHT22;5949;40.386;18.150;2022-10-16T07:31:42;22.30;99.90
11784;DHT22;5949;40.386;18.150;2022-10-16T07:34:11;22.30;99.90
11784;DHT22;5949;40.386;18.150;2022-10-16T07:36:39;22.40;99.90
11784;DHT22;5949;40.386;18.150;2022-10-16T07:39:07;22.50;99.90
11784;DHT22;5949;40.386;18.150;2022-10-16T07:41:34;22.70;99.90
11784;DHT22;5949;40.386;18.150;2022-10-16T07:44:05;22.70;99.90
11784;DHT22;5949;40.386;18.150;2022-10-16T07:46:34;22.50;99.90
11784;DHT22;5949;40.386;18.150;2022-10-16T07:49:03;22.50;99.90
11784;DHT22;5949;40.386;18.150;2022-10-16T07:51:32;22.60;99.90
11784;DHT22;5949;40.386;18.150;2022-10-16T07:53:59;22.50;99.90
11784;DHT22;5949;40.386;18.150;2022-10-16T07:56:27;22.70;99.90
11784;DHT22;5949;40.386;18.150;2022-10-16T07:58:55;22.60;99.90
11784;DHT22;5949;40.386;18.150;2022-10-16T08:01:22;22.60;99.90
11784;DHT22;5949;40.386;18.150;2022-10-16T08:03:51;22.40;99.90
11784;DHT22;5949;40.386;18.150;2022-10-16T08:06:20;22.30;99.90
11784;DHT22;5949;40.386;18.150;2022-10-16T08:08:49;22.40;99.90
11784;DHT22;5949;40.386;18.150;2022-10-16T08:11:17;22.60;99.90
11784;DHT22;5949;40.386;18.150;2022-10-16T08:13:44;22.50;99.90
11784;DHT22;5949;40.386;18.150;2022-10-16T08:16:12;22.40;99.90
11784;DHT22;5949;40.386;18.150;2022-10-16T08:18:40;22.30;99.90
11784;DHT22;5949;40.386;18.150;2022-10-16T08:21:12;22.20;99.90
11784;DHT22;5949;40.386;18.150;2022-10-16T08:23:41;22.40;99.90
11784;DHT22;5949;40.386;18.150;2022-10-16T08:26:11;22.30;99.90
11784;DHT22;5949;40.386;18.150;2022-10-16T08:28:39;22.50;99.90
11784;DHT22;5949;40.386;18.150;2022-10-16T08:31:08;22.70;99.90
11784;DHT22;5949;40.386;18.150;2022-10-16T08:33:37;22.60;99.90
11784;DHT22;5949;40.386;18.150;2022-10-16T08:36:14;22.60;99.90
11784;DHT22;5949;40.386;18.150;2022-10-16T08:38:41;22.60;99.90
11784;DHT22;5949;40.386;18.150;2022-10-16T08:44:28;22.60;99.90
11784;DHT22;5949;40.386;18.150;2022-10-16T08:47:02;22.60;99.90
11784;DHT22;5949;40.386;18.150;2022-10-16T08:49:34;22.40;99.90
11784;DHT22;5949;40.386;18.150;2022-10-16T08:52:02;22.50;99.90
11784;DHT22;5949;40.386;18.150;2022-10-16T08:54:32;22.40;99.90
11784;DHT22;5949;40.386;18.150;2022-10-16T08:57:11;22.50;99.90
11784;DHT22;5949;40.386;18.150;2022-10-16T08:59:39;22.50;99.90
11784;DHT22;5949;40.386;18.150;2022-10-16T09:02:23;22.50;99.90
11784;DHT22;5949;40.386;18.150;2022-10-16T09:05:01;22.50;99.90
11784;DHT22;5949;40.386;18.150;2022-10-16T09:07:34;22.30;99.90
11784;DHT22;5949;40.386;18.150;2022-10-16T09:10:19;22.50;99.90
11784;DHT22;5949;40.386;18.150;2022-10-16T09:12:55;22.40;99.90
11784;DHT22;5949;40.386;18.150;2022-10-16T09:15:31;22.60;99.90
11784;DHT22;5949;40.386;18.150;2022-10-16T09:18:05;22.40;99.90
11784;DHT22;5949;40.386;18.150;2022-10-16T09:20:40;22.50;99.90
11784;DHT22;5949;40.386;18.150;2022-10-16T09:23:16;22.60;99.90
11784;DHT22;5949;40.386;18.150;2022-10-16T09:25:47;22.20;99.90
11784;DHT22;5949;40.386;18.150;2022-10-16T09:28:18;22.20;99.90
11784;DHT22;5949;40.386;18.150;2022-10-16T09:30:46;22.40;99.90
11784;DHT22;5949;40.386;18.150;2022-10-16T09:33:17;22.50;99.90
11784;DHT22;5949;40.386;18.150;2022-10-16T09:35:47;22.30;99.90
11784;DHT22;5949;40.386;18.150;2022-10-16T09:38:25;22.40;99.90
11784;DHT22;5949;40.386;18.150;2022-10-16T09:40:53;22.30;99.90
11784;DHT22;5949;40.386;18.150;2022-10-16T09:43:24;22.50;99.90
11784;DHT22;5949;40.386;18.150;2022-10-16T09:46:04;22.50;99.90
11784;DHT22;5949;40.386;18.150;2022-10-16T09:48:36;22.20;99.90
11784;DHT22;5949;40.386;18.150;2022-10-16T09:51:05;22.50;99.90
11784;DHT22;5949;40.386;18.150;2022-10-16T09:53:42;22.40;99.90
11784;DHT22;5949;40.386;18.150;2022-10-16T09:56:11;22.20;99.90
11784;DHT22;5949;40.386;18.150;2022-10-16T09:58:53;22.30;99.90
11784;DHT22;5949;40.386;18.150;2022-10-16T10:01:31;22.40;99.90
11784;DHT22;5949;40.386;18.150;2022-10-16T10:04:02;22.20;99.90
11784;DHT22;5949;40.386;18.150;2022-10-16T10:06:31;22.30;99.90
11784;DHT22;5949;40.386;18.150;2022-10-16T10:09:04;22.40;99.90
11784;DHT22;5949;40.386;18.150;2022-10-16T10:11:50;22.40;99.90
11784;DHT22;5949;40.386;18.150;2022-10-16T10:14:23;22.50;99.90
11784;DHT22;5949;40.386;18.150;2022-10-16T10:16:51;22.50;99.90
11784;DHT22;5949;40.386;18.150;2022-10-16T10:19:20;22.30;99.90
11784;DHT22;5949;40.386;18.150;2022-10-16T10:21:49;22.30;99.90
11784;DHT22;5949;40.386;18.150;2022-10-16T10:24:18;22.50;99.90
11784;DHT22;5949;40.386;18.150;2022-10-16T10:26:51;22.50;99.90
11784;DHT22;5949;40.386;18.150;2022-10-16T10:29:37;22.50;99.90
11784;DHT22;5949;40.386;18.150;2022-10-16T10:32:15;22.40;99.90
11784;DHT22;5949;40.386;18.150;2022-10-16T10:35:02;22.50;99.90
11784;DHT22;5949;40.386;18.150;2022-10-16T10:37:44;22.40;99.90
11784;DHT22;5949;40.386;18.150;2022-10-16T10:40:27;22.60;99.90
11784;DHT22;5949;40.386;18.150;2022-10-16T10:43:00;22.40;99.90
11784;DHT22;5949;40.386;18.150;2022-10-16T10:45:41;22.60;99.90
11784;DHT22;5949;40.386;18.150;2022-10-16T10:48:24;22.50;99.90
11784;DHT22;5949;40.386;18.150;2022-10-16T10:50:57;22.40;99.90
11784;DHT22;5949;40.386;18.150;2022-10-16T10:53:36;22.50;99.90
11784;DHT22;5949;40.386;18.150;2022-10-16T10:56:15;22.40;99.90
11784;DHT22;5949;40.386;18.150;2022-10-16T10:58:57;22.50;99.90
11784;DHT22;5949;40.386;18.150;2022-10-16T11:01:37;22.40;99.90
11784;DHT22;5949;40.386;18.150;2022-10-16T11:04:32;22.50;99.90
11784;DHT22;5949;40.386;18.150;2022-10-16T11:07:03;22.50;99.90
11784;DHT22;5949;40.386;18.150;2022-10-16T11:09:34;22.50;99.90
11784;DHT22;5949;40.386;18.150;2022-10-16T11:12:09;22.70;99.90
11784;DHT22;5949;40.386;18.150;2022-10-16T11:14:45;22.50;99.90
11784;DHT22;5949;40.386;18.150;2022-10-16T11:17:18;22.60;99.90
11784;DHT22;5949;40.386;18.150;2022-10-16T11:19:51;22.50;99.90
11784;DHT22;5949;40.386;18.150;2022-10-16T11:22:25;22.60;99.90
11784;DHT22;5949;40.386;18.150;2022-10-16T11:25:00;22.80;99.90
11784;DHT22;5949;40.386;18.150;2022-10-16T11:27:35;22.80;99.90
11784;DHT22;5949;40.386;18.150;2022-10-16T11:30:06;22.50;99.90
11784;DHT22;5949;40.386;18.150;2022-10-16T11:32:56;22.60;99.90
11784;DHT22;5949;40.386;18.150;2022-10-16T11:35:39;22.60;99.90
11784;DHT22;5949;40.386;18.150;2022-10-16T11:38:14;22.60;99.90
11784;DHT22;5949;40.386;18.150;2022-10-16T11:40:44;22.50;99.90
11784;DHT22;5949;40.386;18.150;2022-10-16T11:43:15;22.50;99.90
11784;DHT22;5949;40.386;18.150;2022-10-16T11:45:48;22.50;99.90
11784;DHT22;5949;40.386;18.150;2022-10-16T11:48:25;22.60;99.90
11784;DHT22;5949;40.386;18.150;2022-10-16T11:50:57;22.40;99.90
11784;DHT22;5949;40.386;18.150;2022-10-16T11:53:39;22.60;99.90
11784;DHT22;5949;40.386;18.150;2022-10-16T11:56:12;22.60;99.90
11784;DHT22;5949;40.386;18.150;2022-10-16T11:58:44;22.60;99.90
11784;DHT22;5949;40.386;18.150;2022-10-16T12:01:18;22.60;99.90
11784;DHT22;5949;40.386;18.150;2022-10-16T12:04:01;22.50;99.90
11784;DHT22;5949;40.386;18.150;2022-10-16T12:06:33;22.70;99.90
11784;DHT22;5949;40.386;18.150;2022-10-16T12:09:02;22.60;99.90
11784;DHT22;5949;40.386;18.150;2022-10-16T12:11:37;22.60;99.90
11784;DHT22;5949;40.386;18.150;2022-10-16T12:14:20;22.60;99.90
11784;DHT22;5949;40.386;18.150;2022-10-16T12:16:54;22.60;99.90
11784;DHT22;5949;40.386;18.150;2022-10-16T12:19:25;22.60;99.90
11784;DHT22;5949;40.386;18.150;2022-10-16T12:21:55;22.60;99.90
11784;DHT22;5949;40.386;18.150;2022-10-16T12:24:32;22.60;99.90
11784;DHT22;5949;40.386;18.150;2022-10-16T12:27:00;22.50;99.90
11784;DHT22;5949;40.386;18.150;2022-10-16T12:29:33;22.50;99.90
11784;DHT22;5949;40.386;18.150;2022-10-16T12:32:02;22.60;99.90
11784;DHT22;5949;40.386;18.150;2022-10-16T12:34:37;22.60;99.90
11784;DHT22;5949;40.386;18.150;2022-10-16T12:37:12;22.60;99.90
11784;DHT22;5949;40.386;18.150;2022-10-16T12:39:40;22.70;99.90
11784;DHT22;5949;40.386;18.150;2022-10-16T12:42:22;22.70;99.90
11784;DHT22;5949;40.386;18.150;2022-10-16T12:44:50;22.80;99.90
11784;DHT22;5949;40.386;18.150;2022-10-16T12:47:22;22.70;99.90
11784;DHT22;5949;40.386;18.150;2022-10-16T12:49:52;22.60;99.90
11784;DHT22;5949;40.386;18.150;2022-10-16T12:52:26;22.50;99.90
11784;DHT22;5949;40.386;18.150;2022-10-16T12:54:56;22.70;99.90
11784;DHT22;5949;40.386;18.150;2022-10-16T12:57:38;22.50;99.90
11784;DHT22;5949;40.386;18.150;2022-10-16T13:00:14;22.70;99.90
11784;DHT22;5949;40.386;18.150;2022-10-16T13:05:53;22.60;99.90
11784;DHT22;5949;40.386;18.150;2022-10-16T13:08:35;22.60;99.90
11784;DHT22;5949;40.386;18.150;2022-10-16T13:11:10;22.50;99.90
11784;DHT22;5949;40.386;18.150;2022-10-16T13:13:56;22.60;99.90
11784;DHT22;5949;40.386;18.150;2022-10-16T13:16:35;22.50;99.90
11784;DHT22;5949;40.386;18.150;2022-10-16T13:19:18;22.50;99.90
11784;DHT22;5949;40.386;18.150;2022-10-16T13:21:56;22.50;99.90
11784;DHT22;5949;40.386;18.150;2022-10-16T13:24:41;22.50;99.90
11784;DHT22;5949;40.386;18.150;2022-10-16T13:27:18;22.50;99.90
11784;DHT22;5949;40.386;18.150;2022-10-16T13:29:53;22.60;99.90
11784;DHT22;5949;40.386;18.150;2022-10-16T13:32:22;22.50;99.90
11784;DHT22;5949;40.386;18.150;2022-10-16T13:34:50;22.40;99.90
11784;DHT22;5949;40.386;18.150;2022-10-16T13:37:24;22.50;99.90
11784;DHT22;5949;40.386;18.150;2022-10-16T13:40:06;22.40;99.90
11784;DHT22;5949;40.386;18.150;2022-10-16T13:42:39;22.30;99.90
11784;DHT22;5949;40.386;18.150;2022-10-16T13:45:18;22.40;99.90
11784;DHT22;5949;40.386;18.150;2022-10-16T13:47:45;22.20;99.90
11784;DHT22;5949;40.386;18.150;2022-10-16T13:50:14;22.20;99.90
11784;DHT22;5949;40.386;18.150;2022-10-16T13:52:44;22.10;99.90
11784;DHT22;5949;40.386;18.150;2022-10-16T13:55:14;22.10;99.90
11784;DHT22;5949;40.386;18.150;2022-10-16T13:57:42;22.00;99.90
11784;DHT22;5949;40.386;18.150;2022-10-16T14:00:21;22.00;99.90
11784;DHT22;5949;40.386;18.150;2022-10-16T14:02:54;22.10;99.90
11784;DHT22;5949;40.386;18.150;2022-10-16T14:05:23;22.00;99.90
11784;DHT22;5949;40.386;18.150;2022-10-16T14:07:54;22.10;99.90
11784;DHT22;5949;40.386;18.150;2022-10-16T14:10:24;22.20;99.90
11784;DHT22;5949;40.386;18.150;2022-10-16T14:13:00;22.20;99.90
11784;DHT22;5949;40.386;18.150;2022-10-16T14:15:30;22.30;99.90
11784;DHT22;5949;40.386;18.150;2022-10-16T14:17:58;22.30;99.90
11784;DHT22;5949;40.386;18.150;2022-10-16T14:20:27;22.20;99.90
11784;DHT22;5949;40.386;18.150;2022-10-16T14:23:02;22.30;99.90
11784;DHT22;5949;40.386;18.150;2022-10-16T14:25:32;22.20;99.90
11784;DHT22;5949;40.386;18.150;2022-10-16T14:28:02;22.30;99.90
11784;DHT22;5949;40.386;18.150;2022-10-16T14:30:32;22.30;99.90
11784;DHT22;5949;40.386;18.150;2022-10-16T14:33:02;22.40;99.90
11784;DHT22;5949;40.386;18.150;2022-10-16T14:35:32;22.50;99.90
11784;DHT22;5949;40.386;18.150;2022-10-16T14:38:02;22.30;99.90
11784;DHT22;5949;40.386;18.150;2022-10-16T14:40:32;22.40;99.90
11784;DHT22;5949;40.386;18.150;2022-10-16T14:43:00;22.40;99.90
11784;DHT22;5949;40.386;18.150;2022-10-16T14:45:30;22.40;99.90
11784;DHT22;5949;40.386;18.150;2022-10-16T14:48:00;22.40;99.90
11784;DHT22;5949;40.386;18.150;2022-10-16T14:50:29;22.30;99.90
11784;DHT22;5949;40.386;18.150;2022-10-16T14:52:56;22.30;99.90
11784;DHT22;5949;40.386;18.150;2022-10-16T14:55:26;22.40;99.90
11784;DHT22;5949;40.386;18.150;2022-10-16T14:57:54;22.30;99.90
11784;DHT22;5949;40.386;18.150;2022-10-16T15:00:23;22.20;99.90
11784;DHT22;5949;40.386;18.150;2022-10-16T15:02:51;22.20;99.90
11784;DHT22;5949;40.386;18.150;2022-10-16T15:05:20;22.30;99.90
11784;DHT22;5949;40.386;18.150;2022-10-16T15:07:48;22.20;99.90
11784;DHT22;5949;40.386;18.150;2022-10-16T15:10:17;22.20;99.90
11784;DHT22;5949;40.386;18.150;2022-10-16T15:12:46;22.30;99.90
11784;DHT22;5949;40.386;18.150;2022-10-16T15:15:34;22.30;99.90
11784;DHT22;5949;40.386;18.150;2022-10-16T15:18:02;22.30;99.90
11784;DHT22;5949;40.386;18.150;2022-10-16T15:20:31;22.20;99.90
11784;DHT22;5949;40.386;18.150;2022-10-16T15:23:01;22.20;99.90
11784;DHT22;5949;40.386;18.150;2022-10-16T15:25:33;22.10;99.90
11784;DHT22;5949;40.386;18.150;2022-10-16T15:28:03;22.20;99.90
11784;DHT22;5949;40.386;18.150;2022-10-16T15:30:31;22.20;99.90
11784;DHT22;5949;40.386;18.150;2022-10-16T15:32:59;22.30;99.90
11784;DHT22;5949;40.386;18.150;2022-10-16T15:35:26;22.20;99.90
11784;DHT22;5949;40.386;18.150;2022-10-16T15:37:54;22.20;99.90
11784;DHT22;5949;40.386;18.150;2022-10-16T15:40:22;22.10;99.90
11784;DHT22;5949;40.386;18.150;2022-10-16T15:42:50;22.30;99.90
11784;DHT22;5949;40.386;18.150;2022-10-16T15:45:19;22.10;99.90
11784;DHT22;5949;40.386;18.150;2022-10-16T15:47:46;22.20;99.90
11784;DHT22;5949;40.386;18.150;2022-10-16T15:50:15;22.10;99.90
11784;DHT22;5949;40.386;18.150;2022-10-16T15:52:43;22.20;99.90
11784;DHT22;5949;40.386;18.150;2022-10-16T15:55:12;22.10;99.90
11784;DHT22;5949;40.386;18.150;2022-10-16T15:57:40;22.10;99.90
11784;DHT22;5949;40.386;18.150;2022-10-16T16:00:10;22.30;99.90